createdAt,value
2022-12-02T00:00:26.484Z,3.58
2022-12-02T00:05:32.444Z,3.60
2022-12-02T00:10:35.829Z,3.59
2022-12-02T00:15:43.100Z,3.54
2022-12-02T00:20:46.268Z,3.59
2022-12-02T00:25:51.311Z,3.55
2022-12-02T00:30:55.437Z,3.54
2022-12-02T00:35:58.446Z,3.52
2022-12-02T00:41:01.203Z,3.43
2022-12-02T00:46:23.109Z,3.49
2022-12-02T00:51:25.918Z,3.48
2022-12-02T00:56:29.660Z,3.49
2022-12-02T01:01:35.779Z,3.50
2022-12-02T01:06:40.469Z,3.53
2022-12-02T01:11:43.278Z,3.51
2022-12-02T01:16:47.985Z,3.51
2022-12-02T01:21:50.893Z,3.56
2022-12-02T01:26:53.656Z,3.57
2022-12-02T01:31:57.922Z,3.59
2022-12-02T01:37:00.688Z,3.56
2022-12-02T01:42:05.321Z,3.59
2022-12-02T01:47:09.573Z,3.61
2022-12-02T01:52:12.390Z,3.62
2022-12-02T01:57:16.651Z,3.61
2022-12-02T02:02:29.428Z,3.62
2022-12-02T02:07:32.952Z,3.62
2022-12-02T02:12:36.108Z,3.60
2022-12-02T02:17:40.921Z,3.57
2022-12-02T02:22:50.713Z,3.61
2022-12-02T02:27:58.424Z,3.56
2022-12-02T02:33:02.175Z,3.57
2022-12-02T02:38:07.402Z,3.58
2022-12-02T02:43:12.633Z,3.59
2022-12-02T02:48:16.771Z,3.62
2022-12-02T02:53:23.666Z,3.63
2022-12-02T02:58:30.133Z,3.65
2022-12-02T03:03:36.089Z,3.63
2022-12-02T03:08:41.862Z,3.65
2022-12-02T03:13:49.795Z,3.66
2022-12-02T03:18:54.040Z,3.65
2022-12-02T03:24:00.149Z,3.64
2022-12-02T03:29:05.517Z,3.65
2022-12-02T03:34:09.268Z,3.64
2022-12-02T03:39:13.305Z,3.65
2022-12-02T03:44:18.078Z,3.65
2022-12-02T03:49:21.059Z,3.68
2022-12-02T03:54:23.976Z,3.65
2022-12-02T03:59:29.239Z,3.65
2022-12-02T04:04:31.945Z,3.66
2022-12-02T04:09:34.699Z,3.68
2022-12-02T04:14:38.824Z,3.65
2022-12-02T04:19:41.640Z,3.63
2022-12-02T04:24:44.413Z,3.61
2022-12-02T04:29:48.512Z,3.57
2022-12-02T04:34:51.636Z,3.59
2022-12-02T04:39:54.750Z,3.59
2022-12-02T04:44:59.106Z,3.60
2022-12-02T04:50:01.905Z,3.58
2022-12-02T04:55:05.182Z,3.60
2022-12-02T05:00:13.397Z,3.60
2022-12-02T05:05:18.301Z,3.59
2022-12-02T05:10:21.005Z,3.59
2022-12-02T05:15:25.121Z,3.61
2022-12-02T05:20:27.876Z,3.66
2022-12-02T05:25:30.650Z,3.62
2022-12-02T05:30:34.785Z,3.63
2022-12-02T05:35:37.566Z,3.46
2022-12-02T05:40:40.336Z,3.55
2022-12-02T05:45:44.765Z,3.48
2022-12-02T05:50:48.352Z,3.49
2022-12-02T05:55:51.336Z,3.52
2022-12-02T06:00:57.655Z,3.45
2022-12-02T06:06:02.871Z,3.41
2022-12-02T06:11:23.674Z,3.44
2022-12-02T06:16:30.168Z,3.40
2022-12-02T06:21:32.953Z,3.35
2022-12-02T06:26:35.841Z,3.17
2022-12-02T06:31:44.008Z,3.31
2022-12-02T06:36:47.262Z,3.28
2022-12-02T06:41:50.573Z,3.33
2022-12-02T06:46:54.729Z,3.28
2022-12-02T06:51:59.662Z,3.32
2022-12-02T06:57:03.624Z,3.28
2022-12-02T07:02:24.549Z,3.30
2022-12-02T07:07:30.756Z,3.18
2022-12-02T07:12:38.469Z,3.13
2022-12-02T07:17:45.111Z,3.14
2022-12-02T07:22:50.740Z,3.00
2022-12-02T07:27:53.746Z,3.01
2022-12-02T07:32:58.066Z,3.00
2022-12-02T07:38:00.937Z,3.02
2022-12-02T07:43:04.901Z,2.97
2022-12-02T07:48:09.262Z,2.94
2022-12-02T07:53:12.911Z,2.97
2022-12-02T07:58:15.827Z,2.94
2022-12-02T08:03:20.933Z,2.85
2022-12-02T08:08:23.640Z,2.89
2022-12-02T08:13:26.912Z,2.92
2022-12-02T08:23:58.066Z,2.88
2022-12-02T08:29:00.907Z,2.92
2022-12-02T08:34:07.239Z,2.83
2022-12-02T08:39:10.772Z,2.91
2022-12-02T08:44:13.529Z,2.73
2022-12-02T08:49:18.027Z,2.75
2022-12-02T08:54:20.989Z,2.69
2022-12-02T08:59:24.193Z,2.45
2022-12-02T09:04:28.965Z,2.65
2022-12-02T09:09:31.726Z,2.69
2022-12-02T09:14:34.523Z,2.77
2022-12-02T09:19:38.819Z,2.71
2022-12-02T09:24:42.118Z,2.64
2022-12-02T09:29:44.973Z,2.62
2022-12-02T09:34:50.286Z,2.57
2022-12-02T09:39:53.521Z,2.53
2022-12-02T09:44:56.613Z,2.55
2022-12-02T09:50:00.717Z,2.51
2022-12-02T09:55:03.950Z,2.42
2022-12-02T10:00:11.008Z,2.43
2022-12-02T10:05:19.493Z,2.20
2022-12-02T10:10:27.341Z,2.17
2022-12-02T10:15:32.810Z,2.16
2022-12-02T10:20:37.025Z,2.09
2022-12-02T10:25:41.633Z,2.05
2022-12-02T10:30:50.784Z,2.17
2022-12-02T10:35:55.874Z,2.18
2022-12-02T10:41:19.986Z,2.16
2022-12-02T10:46:24.070Z,1.98
2022-12-02T10:51:29.389Z,1.96
2022-12-02T10:56:34.306Z,1.94
2022-12-02T11:01:37.271Z,1.99
2022-12-02T11:06:42.177Z,2.15
2022-12-02T11:11:49.522Z,2.09
2022-12-02T11:17:11.084Z,2.12
2022-12-02T11:22:59.187Z,2.10
2022-12-02T11:28:32.065Z,2.14
2022-12-02T11:34:18.840Z,2.00
2022-12-02T11:39:41.878Z,1.94
2022-12-02T11:44:46.055Z,1.91
2022-12-02T11:49:48.983Z,2.07
2022-12-02T11:54:57.372Z,1.98
2022-12-02T12:00:01.493Z,2.16
2022-12-02T12:05:15.123Z,2.10
2022-12-02T12:10:28.194Z,1.99
2022-12-02T12:15:50.769Z,1.95
2022-12-02T12:20:53.580Z,1.87
2022-12-02T12:25:57.084Z,1.94
2022-12-02T12:31:02.716Z,1.93
2022-12-02T12:36:06.853Z,1.97
2022-12-02T12:41:09.580Z,1.99
2022-12-02T12:46:16.181Z,1.93
2022-12-02T12:51:19.108Z,1.94
2022-12-02T12:56:21.878Z,1.89
2022-12-02T13:01:26.034Z,1.89
2022-12-02T13:06:29.713Z,1.90
2022-12-02T13:11:32.817Z,1.85
2022-12-02T13:16:37.388Z,1.85
2022-12-02T13:21:40.198Z,1.84
2022-12-02T13:26:43.193Z,1.73
2022-12-02T13:31:48.200Z,1.73
2022-12-02T13:36:52.335Z,1.84
2022-12-02T13:41:55.140Z,1.87
2022-12-02T13:46:59.977Z,1.89
2022-12-02T13:52:02.829Z,1.85
2022-12-02T13:57:05.627Z,1.79
2022-12-02T14:02:11.910Z,1.80
2022-12-02T14:07:14.753Z,1.75
2022-12-02T14:12:17.614Z,1.76
2022-12-02T14:17:21.985Z,1.62
2022-12-02T15:22:46.193Z,1.44
2022-12-02T15:27:49.012Z,1.45
2022-12-02T15:32:51.801Z,1.47
2022-12-02T15:37:55.961Z,1.34
2022-12-02T15:42:58.805Z,1.33
2022-12-02T15:48:02.812Z,1.27
2022-12-02T15:53:06.901Z,1.19
2022-12-02T15:58:10.258Z,1.16
2022-12-02T16:03:13.289Z,1.09
2022-12-02T16:08:18.258Z,1.04
2022-12-02T16:13:21.085Z,1.11
2022-12-02T16:18:24.232Z,1.01
2022-12-02T16:23:28.395Z,1.09
2022-12-02T16:28:31.529Z,1.05
2022-12-02T16:33:34.401Z,1.06
2022-12-02T16:38:38.485Z,1.03
2022-12-02T16:43:41.281Z,0.99
2022-12-02T16:48:44.006Z,1.05
2022-12-02T16:53:48.164Z,1.05
2022-12-02T16:58:50.878Z,1.07
2022-12-02T17:03:54.176Z,1.10
2022-12-02T17:08:58.345Z,1.07
2022-12-02T17:14:01.296Z,1.08
2022-12-02T17:19:04.397Z,1.10
2022-12-02T17:24:09.253Z,1.12
2022-12-02T17:29:12.901Z,1.09
2022-12-02T17:34:15.635Z,1.10
2022-12-02T17:39:19.705Z,1.16
2022-12-02T17:44:22.513Z,1.13
2022-12-02T17:49:28.536Z,1.09
2022-12-02T17:54:36.868Z,1.05
2022-12-02T17:59:39.648Z,1.04
2022-12-02T18:04:44.405Z,1.05
2022-12-02T18:09:48.909Z,1.06
2022-12-02T18:14:52.041Z,0.99
2022-12-02T18:19:55.954Z,0.99
2022-12-02T18:25:00.346Z,0.98
2022-12-02T18:30:03.109Z,0.89
2022-12-02T18:35:06.945Z,0.91
2022-12-02T18:40:16.468Z,0.94
2022-12-02T18:45:19.318Z,0.86
2022-12-02T18:50:22.141Z,0.80
2022-12-02T18:55:26.287Z,0.78
2022-12-02T19:00:29.066Z,0.66
2022-12-02T19:05:31.796Z,0.70
2022-12-02T19:10:35.881Z,0.80
2022-12-02T19:15:39.220Z,0.75
2022-12-02T19:20:42.098Z,0.70
2022-12-02T19:25:50.234Z,0.67
2022-12-02T19:30:53.491Z,0.64
2022-12-02T19:35:56.356Z,0.64
2022-12-02T19:41:00.502Z,0.62
2022-12-02T19:46:03.644Z,0.56
2022-12-02T19:51:06.828Z,0.59
2022-12-02T19:56:10.912Z,0.56
2022-12-02T20:01:13.703Z,0.53
2022-12-02T20:06:16.610Z,0.47
2022-12-02T20:11:21.006Z,0.53
2022-12-02T20:16:24.498Z,0.39
2022-12-02T20:21:27.350Z,0.41
2022-12-02T20:26:34.069Z,0.42
2022-12-02T20:31:38.053Z,0.48
2022-12-02T20:36:41.705Z,0.45
2022-12-02T20:41:46.819Z,0.41
2022-12-02T20:46:49.653Z,0.46
2022-12-02T20:51:52.674Z,0.44
2022-12-02T20:56:57.628Z,0.39
2022-12-02T21:02:00.463Z,0.39
2022-12-02T21:07:09.007Z,0.39
2022-12-02T21:12:13.738Z,0.43
2022-12-02T21:17:16.816Z,0.38
2022-12-02T21:22:19.620Z,0.44
2022-12-02T21:27:25.655Z,0.45
2022-12-02T21:32:28.514Z,0.47
2022-12-02T21:37:31.290Z,0.50
2022-12-02T21:42:35.528Z,0.57
2022-12-02T21:47:38.229Z,0.52
2022-12-02T21:52:40.973Z,0.51
2022-12-02T21:57:45.126Z,0.50
2022-12-02T22:02:47.904Z,0.48
2022-12-02T22:07:50.756Z,0.55
2022-12-02T22:12:54.958Z,0.51
2022-12-02T22:17:57.731Z,0.48
2022-12-02T22:23:00.543Z,0.44
2022-12-02T22:28:04.930Z,0.46
2022-12-02T22:33:07.644Z,0.46
2022-12-02T22:38:10.402Z,0.46
2022-12-02T22:43:14.468Z,0.45
2022-12-02T22:48:17.221Z,0.47
2022-12-02T22:53:20.103Z,0.46
2022-12-02T22:58:24.313Z,0.42
2022-12-02T23:03:27.141Z,0.51
2022-12-02T23:08:30.632Z,0.51
2022-12-02T23:13:34.817Z,0.46
2022-12-02T23:18:37.606Z,0.53
2022-12-02T23:23:40.360Z,0.50
2022-12-02T23:28:44.437Z,0.48
2022-12-02T23:33:47.494Z,0.52
2022-12-02T23:38:50.277Z,0.52
2022-12-02T23:43:54.369Z,0.44
2022-12-02T23:48:57.072Z,0.41
2022-12-02T23:53:59.785Z,0.39
2022-12-02T23:59:04.038Z,0.43
